Date,TemperatureHighF,TemperatureAvgF,TemperatureLowF,DewpointHighF,DewpointAvgF,DewpointLowF,HumidityHigh,HumidityAvg,HumidityLow,PressureMaxIn,PressureMinIn,WindSpeedMaxMPH,WindSpeedAvgMPH,GustSpeedMaxMPH,PrecipitationSumIn
2013-1-1,29,18,12,15,11,7,83,75,52,30.63,30.42,5,0,7,0.00
2013-1-2,29,16,6,14,9,1,85,74,52,30.63,30.53,2,0,4,0.00
2013-1-3,30,16,6,14,9,1,88,74,52,30.58,30.50,1,0,4,0.00
2013-1-4,29,18,9,17,11,4,84,76,58,30.61,30.50,2,0,4,0.00
2013-1-5,31,22,12,19,15,7,89,75,56,30.53,30.26,2,0,5,0.00
2013-1-6,34,24,18,22,18,14,85,77,59,30.35,30.20,5,0,8,0.00
2013-1-7,38,26,15,25,20,11,91,77,55,30.45,30.34,2,0,3,0.00
2013-1-8,48,34,24,34,28,20,89,78,58,30.41,30.26,1,0,4,0.08
2013-1-9,57,40,27,33,27,20,89,65,24,30.26,29.68,17,3,17,0.03
2013-1-10,30,26,23,19,14,11,76,61,45,30.04,29.72,17,5,25,0.02
2013-1-11,30,24,14,18,13,8,79,65,45,30.23,30.05,9,4,15,0.01
2013-1-12,26,15,5,9,5,-1,79,67,38,30.38,30.23,3,0,5,0.00
2013-1-13,23,13,5,12,4,-1,86,69,48,30.54,30.36,8,1,12,0.00
2013-1-14,28,15,4,10,4,-2,79,63,37,30.70,30.54,3,0,5,0.00
2013-1-15,36,23,12,19,12,6,83,66,41,30.83,30.69,1,0,4,0.00
2013-1-16,39,24,13,22,17,9,91,74,50,30.84,30.67,2,0,5,0.00
2013-1-17,34,21,13,22,15,8,87,78,53,30.73,30.60,2,0,3,0.00
2013-1-18,34,21,13,23,15,9,89,79,54,30.67,30.55,2,0,5,0.00
2013-1-19,36,20,9,20,14,5,89,77,50,30.71,30.57,1,0,4,0.00
2013-1-20,38,22,10,20,14,6,84,73,47,30.67,30.55,1,0,3,0.00
2013-1-21,44,26,14,22,16,9,86,69,34,30.59,30.41,1,0,2,0.00
2013-1-22,43,28,16,23,19,12,87,71,41,30.46,30.27,1,0,4,0.01
2013-1-23,56,39,27,28,23,15,82,57,22,30.28,30.08,7,1,9,0.00
2013-1-24,46,40,35,37,34,31,90,80,64,30.21,30.11,3,0,6,0.07
2013-1-25,49,40,34,42,36,31,93,87,69,30.21,30.01,3,0,7,0.01
2013-1-26,52,41,30,42,28,20,93,65,37,30.01,29.76,12,5,16,0.01
2013-1-27,38,29,21,23,18,13,82,62,46,30.14,29.81,12,5,17,0.00
2013-1-28,37,28,17,25,18,12,84,69,47,30.26,30.14,9,2,11,0.00
2013-1-29,47,39,32,29,25,20,78,58,47,30.39,30.21,15,4,18,0.00
2013-1-30,53,38,26,33,28,23,88,70,35,30.44,30.35,3,0,5,0.00
2013-1-31,57,38,26,33,27,22,89,69,28,30.40,30.21,8,1,9,0.01
2013-2-1,54,38,25,32,27,22,91,68,32,30.35,30.24,2,0,4,0.00
2013-2-2,46,36,28,31,28,23,88,74,54,30.39,30.30,0,0,2,0.00
2013-2-3,54,37,26,33,26,20,90,70,27,30.31,30.20,5,1,10,0.01
2013-2-4,60,40,25,30,22,16,85,54,18,30.25,30.05,2,0,4,0.00
2013-2-5,57,42,30,26,20,12,67,46,18,30.05,29.85,12,3,18,0.00
2013-2-6,52,36,23,25,19,7,83,53,17,30.13,30.02,4,1,8,0.00
2013-2-7,44,35,26,25,13,0,61,42,19,30.03,29.79,17,6,26,0.00
2013-2-8,34,29,24,19,16,13,75,60,48,30.01,29.84,10,4,17,0.00
2013-2-9,38,29,22,17,14,11,73,55,36,30.16,30.02,9,3,13,0.00
2013-2-10,40,29,18,22,15,10,81,59,31,30.22,30.14,7,2,12,0.00
2013-2-11,45,30,18,21,14,10,80,55,27,30.36,30.22,3,0,6,0.00
2013-2-12,50,34,20,22,18,14,79,56,28,30.44,30.34,6,1,9,0.00
2013-2-13,53,36,23,24,22,18,82,58,31,30.44,30.30,5,0,13,0.00
2013-2-14,52,40,28,28,25,21,84,57,36,30.45,30.34,7,2,15,0.00
2013-2-15,56,40,26,27,23,20,81,55,27,30.47,30.32,7,1,12,0.00
2013-2-16,54,41,24,25,18,12,79,45,20,30.35,30.02,6,1,7,0.00
2013-2-17,49,39,27,26,18,10,61,43,29,30.03,29.92,8,2,13,0.00
2013-2-18,53,36,23,22,15,11,67,44,22,30.03,29.74,10,2,14,0.00
2013-2-19,42,34,28,28,16,8,82,50,25,29.74,29.49,13,6,19,0.00
2013-2-20,43,32,25,20,14,6,72,51,23,30.01,29.70,9,4,16,0.00
2013-2-21,45,34,23,19,13,1,78,45,17,30.17,29.97,10,2,14,0.00
2013-2-22,55,40,24,25,18,13,69,43,24,30.25,29.97,12,2,21,0.00
2013-2-23,43,34,23,27,16,5,80,48,26,30.26,29.82,19,7,33,0.00
2013-2-24,44,30,16,16,9,4,76,46,21,30.42,30.26,4,1,11,0.00
2013-2-25,53,36,21,15,9,3,59,35,18,30.31,30.13,16,4,21,0.00
2013-2-26,45,32,20,15,8,-7,66,39,11,30.34,30.22,6,1,9,0.00
2013-2-27,58,37,18,11,8,6,59,34,15,30.44,30.29,6,1,13,0.00
2013-2-28,61,46,32,30,24,10,68,43,28,30.44,30.32,7,1,11,0.00
2013-3-1,66,47,29,33,27,24,83,51,23,30.46,30.26,5,1,9,0.00
2013-3-2,64,49,35,29,25,21,69,43,20,30.28,29.98,9,1,12,0.00
2013-3-3,50,43,39,38,36,26,86,75,39,29.99,29.89,10,1,12,0.10
2013-3-4,58,42,30,36,31,26,90,68,34,30.10,29.95,5,1,9,0.01
2013-3-5,60,45,30,34,25,20,85,52,24,29.97,29.63,11,3,16,0.00
2013-3-6,46,37,30,30,22,16,86,56,38,29.94,29.58,18,8,24,0.04
2013-3-7,44,35,27,27,22,18,75,58,37,29.97,29.84,4,1,9,0.00
2013-3-8,46,37,26,27,22,17,84,59,32,29.98,29.80,7,2,12,0.00
2013-3-9,52,40,29,26,13,3,65,36,14,30.39,29.98,10,3,11,0.00
2013-3-10,59,40,22,16,10,2,58,32,11,30.47,30.31,5,1,9,0.00
2013-3-11,66,46,28,18,13,2,54,30,9,30.33,30.11,4,0,9,0.00
2013-3-12,71,50,30,22,18,12,62,33,11,30.18,30.04,3,0,6,0.00
2013-3-13,75,60,41,29,22,13,48,26,10,30.15,30.01,6,1,9,0.00
2013-3-14,72,54,42,30,27,20,58,37,16,30.07,30.00,11,1,17,0.00
2013-3-15,71,53,37,28,22,12,60,34,10,30.05,29.91,10,2,13,0.00
2013-3-16,67,50,35,28,23,12,68,37,12,29.98,29.81,13,4,15,0.00
2013-3-17,62,49,32,23,14,8,52,27,13,29.99,29.90,9,3,15,0.00
2013-3-18,64,47,30,22,19,14,65,36,14,30.04,29.91,9,2,12,0.00
2013-3-19,60,50,42,34,29,21,60,46,28,30.02,29.88,13,5,21,0.00
2013-3-20,55,49,44,34,32,28,61,52,41,29.89,29.77,23,10,32,0.00
2013-3-21,56,44,35,29,20,4,69,41,20,30.02,29.84,10,3,19,0.00
2013-3-22,51,36,22,12,6,-2,58,31,11,30.16,30.00,10,3,13,0.00
2013-3-23,55,38,24,11,7,4,48,29,14,30.25,30.04,7,1,10,0.00
2013-3-24,65,46,26,26,14,5,44,29,17,30.15,29.91,6,2,11,0.00
2013-3-25,67,51,32,25,18,2,65,32,8,29.94,29.75,12,4,19,0.00
2013-3-26,59,51,43,31,27,18,57,40,27,29.82,29.74,14,6,20,0.00
2013-3-27,63,49,33,33,29,25,77,49,24,29.89,29.80,12,3,16,0.00
2013-3-28,62,50,40,38,33,25,74,53,26,30.04,29.87,11,3,17,0.01
2013-3-29,69,52,32,37,30,24,87,51,20,30.13,29.99,5,1,10,0.00
2013-3-30,71,56,37,36,29,23,69,40,17,30.04,29.78,9,3,15,0.00
2013-3-31,56,49,42,41,36,29,86,61,39,29.90,29.75,13,4,18,0.28
2013-4-1,57,46,38,36,32,28,78,60,35,30.06,29.89,10,4,14,0.01
2013-4-2,66,54,38,39,32,24,84,48,22,30.12,29.97,6,1,11,0.00
2013-4-3,73,56,38,40,33,22,86,49,16,30.05,29.86,9,2,12,0.00
2013-4-4,60,51,43,40,34,29,65,52,39,29.92,29.78,15,5,21,0.00
2013-4-5,60,51,42,32,25,18,58,38,21,29.98,29.90,14,7,20,0.00
2013-4-6,59,50,44,33,27,18,53,40,27,29.99,29.90,14,8,18,0.00
2013-4-7,60,50,38,32,28,21,76,44,25,29.94,29.52,18,10,32,0.01
2013-4-8,46,38,30,31,23,14,86,57,27,30.05,29.49,14,8,22,0.03
2013-4-9,55,43,31,21,18,12,62,39,18,30.21,30.05,11,4,18,0.00
2013-4-10,73,58,34,35,27,20,57,32,15,30.28,29.90,12,3,16,0.00
2013-4-11,62,52,42,42,29,11,85,46,15,29.93,29.78,10,3,18,0.16
2013-4-12,71,53,33,32,25,15,74,38,16,29.95,29.70,10,2,15,0.00
2013-4-13,69,58,46,30,22,12,41,26,18,29.75,29.54,14,6,23,0.00
2013-4-14,64,48,36,29,20,11,51,33,21,29.71,29.54,16,5,24,0.00
2013-4-15,50,39,31,30,23,12,83,57,22,29.81,29.57,14,6,18,0.00
2013-4-16,44,34,30,27,21,11,82,62,27,30.19,29.81,15,7,22,0.03
2013-4-17,48,37,25,18,11,5,56,36,19,30.34,30.19,8,3,14,0.00
2013-4-18,59,44,25,18,14,8,61,33,17,30.38,30.24,8,1,11,0.00
2013-4-19,70,52,33,34,24,18,58,37,17,30.27,29.97,13,4,22,0.00
2013-4-20,67,53,37,30,22,12,65,33,12,30.09,29.93,10,2,14,0.00
2013-4-21,75,57,36,27,22,15,52,27,13,30.06,29.87,10,2,11,0.00
2013-4-22,69,56,42,32,24,10,63,32,15,30.04,29.85,12,4,18,0.00
2013-4-23,64,49,33,12,6,2,34,19,9,30.12,29.89,8,2,20,0.00
2013-4-24,65,54,38,8,6,2,27,15,9,30.05,29.87,9,3,16,0.00
2013-4-25,74,56,33,28,13,5,37,21,7,29.97,29.87,10,2,15,0.00
2013-4-26,79,63,42,34,26,19,57,29,11,30.09,29.97,7,2,9,0.00
2013-4-27,83,65,45,34,28,23,58,29,12,30.08,29.90,9,2,15,0.00
2013-4-28,82,66,46,32,28,19,47,25,10,29.94,29.75,10,3,19,0.00
2013-4-29,81,65,46,35,30,28,52,29,16,29.83,29.59,12,4,20,0.00
2013-4-30,67,56,47,31,16,0,41,23,10,30.01,29.66,10,4,15,0.00
2013-5-1,62,48,33,6,1,-5,25,15,7,30.37,30.01,9,3,19,0.00
2013-5-2,74,56,34,8,3,0,25,13,6,30.40,30.10,7,2,15,0.00
2013-5-3,78,63,40,24,13,5,33,16,8,30.11,29.79,10,2,19,0.00
2013-5-4,67,56,47,35,24,12,60,31,16,29.82,29.53,12,2,19,0.01
2013-5-5,68,53,42,42,36,30,75,55,24,29.69,29.56,13,2,19,0.02
2013-5-6,62,52,46,44,40,35,83,66,38,29.80,29.66,12,3,16,0.20
2013-5-7,55,48,42,44,41,38,89,77,58,29.92,29.80,9,3,14,0.39
2013-5-8,69,56,46,47,42,32,90,63,29,29.98,29.88,8,2,10,0.00
2013-5-9,75,61,44,47,40,28,87,51,18,30.00,29.90,6,1,6,0.01
2013-5-10,82,67,49,48,39,28,81,40,15,30.03,29.93,8,1,10,0.00
2013-5-11,86,70,50,45,37,23,75,37,12,30.02,29.89,8,1,12,0.00
2013-5-12,84,77,65,40,33,28,35,21,15,30.00,29.85,13,5,19,0.00
2013-5-13,82,70,51,40,31,25,55,27,14,29.90,29.77,13,4,18,0.00
2013-5-14,83,68,49,38,33,23,57,29,13,29.82,29.66,12,2,16,0.00
2013-5-15,76,66,51,41,28,10,62,29,8,29.79,29.72,13,4,18,0.00
2013-5-16,60,56,50,37,34,29,54,44,37,29.78,29.70,10,4,20,0.00
2013-5-17,68,57,47,36,29,21,62,37,19,29.89,29.75,11,4,15,0.00
2013-5-18,71,57,40,35,30,24,70,39,19,29.99,29.88,11,4,16,0.00
2013-5-19,68,57,45,36,26,17,60,34,15,30.06,29.97,10,3,12,0.00
2013-5-20,77,61,39,30,24,18,55,27,12,30.07,29.80,7,1,12,0.00
2013-5-21,72,62,51,30,23,16,40,23,14,29.80,29.56,15,7,28,0.00
2013-5-22,59,49,34,30,14,6,54,28,13,29.75,29.59,17,5,20,0.00
2013-5-23,62,50,37,21,15,11,41,25,15,29.90,29.74,8,3,14,0.00
2013-5-24,75,57,33,24,17,2,62,26,6,29.90,29.74,12,4,18,0.00
2013-5-25,73,60,47,26,21,15,38,23,13,29.79,29.69,13,5,21,0.00
2013-5-26,69,59,46,33,25,19,49,29,15,29.91,29.77,13,5,18,0.00
2013-5-27,63,54,41,42,34,24,66,49,26,29.91,29.77,13,4,18,0.00
2013-5-28,69,57,46,42,36,30,79,48,23,29.79,29.72,8,3,15,0.01
2013-5-29,72,61,51,40,32,25,59,36,18,29.75,29.65,11,5,17,0.00
2013-5-30,78,63,43,38,30,21,71,34,12,29.87,29.72,10,3,17,0.00
2013-5-31,80,65,43,30,22,13,51,23,9,29.98,29.87,4,1,11,0.00
2013-6-1,88,70,46,32,23,18,38,19,9,29.92,29.65,8,1,13,0.00
2013-6-2,88,73,53,39,32,24,50,25,10,29.67,29.48,8,3,13,0.00
2013-6-3,86,71,53,30,25,21,37,19,11,29.70,29.59,7,1,13,0.00
2013-6-4,89,73,51,32,24,19,43,18,8,29.75,29.65,8,1,16,0.00
2013-6-5,94,76,53,39,26,21,41,18,8,29.79,29.66,7,1,11,0.00
2013-6-6,97,79,56,40,34,26,49,22,9,29.73,29.60,13,2,16,0.00
2013-6-7,98,81,57,39,32,20,45,19,6,29.73,29.58,8,2,15,0.00
2013-6-8,97,82,63,46,38,33,48,22,12,29.68,29.56,7,1,9,0.00
2013-6-9,98,79,59,49,37,28,43,24,11,29.62,29.46,14,1,18,0.00
2013-6-10,82,65,53,55,49,42,89,60,27,29.70,29.43,11,2,13,0.50
2013-6-11,79,67,50,49,38,27,82,41,17,29.80,29.69,12,4,18,0.00
2013-6-12,80,68,52,48,32,11,70,31,9,29.76,29.63,17,5,26,0.00
2013-6-13,76,64,46,32,24,10,56,25,8,29.95,29.75,11,3,17,0.00
2013-6-14,76,61,44,32,25,21,57,28,14,29.96,29.77,5,1,15,0.00
2013-6-15,85,70,45,31,24,18,54,20,9,29.80,29.67,10,3,15,0.00
2013-6-16,82,68,48,31,28,23,42,23,14,29.89,29.78,9,2,14,0.00
2013-6-17,84,68,47,35,28,19,58,26,10,29.89,29.73,14,4,21,0.00
2013-6-18,76,63,46,32,24,18,47,24,13,29.75,29.58,18,6,23,0.00
2013-6-19,70,58,45,30,24,14,49,29,14,29.86,29.68,11,5,17,0.00
2013-6-20,74,59,41,32,29,24,65,34,17,29.88,29.74,9,2,15,0.00
2013-6-21,78,62,42,36,29,18,69,33,12,29.91,29.75,6,2,10,0.00
2013-6-22,84,67,47,36,30,23,53,27,14,29.86,29.65,6,1,10,0.00
2013-6-23,73,64,52,42,34,30,51,34,21,29.67,29.54,13,4,17,0.00
2013-6-24,62,57,50,48,42,34,82,57,41,29.74,29.55,13,4,19,0.02
2013-6-25,72,62,53,54,49,45,82,63,45,29.83,29.73,9,2,15,0.01
2013-6-26,83,71,53,50,44,39,75,41,24,29.87,29.80,12,4,18,0.00
2013-6-27,96,76,52,46,42,36,71,34,14,29.95,29.84,6,2,16,0.00
2013-6-28,101,80,59,57,42,34,62,31,11,29.91,29.67,11,2,20,0.12
2013-6-29,98,82,64,56,46,32,72,35,11,29.76,29.65,8,2,12,0.00
2013-6-30,102,84,61,51,42,33,62,28,10,29.69,29.54,10,2,12,0.00
2013-7-1,103,84,66,50,42,32,47,25,10,29.74,29.61,11,2,12,0.00
2013-7-2,104,80,67,59,48,38,76,38,11,29.82,29.61,15,3,23,0.75
2013-7-3,96,77,60,59,53,45,88,49,19,29.84,29.64,9,1,16,0.00
2013-7-4,93,78,62,57,52,44,77,43,22,29.71,29.50,12,1,20,0.00
2013-7-5,93,78,61,56,41,24,73,34,10,29.55,29.45,10,3,16,0.00
2013-7-6,91,76,55,44,34,27,56,25,11,29.58,29.49,10,3,18,0.00
2013-7-7,93,77,54,40,33,28,50,23,10,29.65,29.55,12,3,19,0.00
2013-7-8,94,77,58,44,36,23,54,25,9,29.79,29.65,10,2,14,0.00
2013-7-9,92,76,57,41,33,28,49,23,11,29.86,29.77,11,2,15,0.00
2013-7-10,90,76,57,40,34,29,45,23,12,29.85,29.70,11,2,15,0.00
2013-7-11,86,78,66,41,30,17,39,19,10,29.71,29.60,10,5,18,0.00
2013-7-12,88,73,50,31,25,18,45,19,9,29.74,29.64,12,3,17,0.00
2013-7-13,91,74,52,31,25,12,37,18,7,29.79,29.68,8,2,13,0.00
2013-7-14,93,76,54,36,31,24,39,21,11,29.83,29.66,8,2,17,0.00
2013-7-15,94,78,58,41,36,28,47,24,11,29.71,29.48,9,2,15,0.00
2013-7-16,88,77,64,40,32,24,38,21,11,29.74,29.55,12,4,18,0.00
2013-7-17,94,81,58,34,27,16,38,15,7,29.90,29.75,7,2,11,0.00
2013-7-18,98,80,55,37,30,18,47,20,6,29.86,29.66,8,2,18,0.00
2013-7-19,103,85,60,41,34,24,44,19,7,29.73,29.55,8,2,11,0.00
2013-7-20,104,85,63,47,36,22,46,20,7,29.62,29.47,15,2,21,0.00
2013-7-21,104,88,65,46,39,29,42,21,8,29.57,29.46,8,3,12,0.00
2013-7-22,100,86,73,47,41,34,36,22,11,29.68,29.52,11,4,15,0.00
2013-7-23,84,77,70,50,40,32,44,27,19,29.78,29.66,7,2,12,0.00
2013-7-24,93,79,63,50,47,42,60,36,18,29.79,29.68,7,2,15,0.00
2013-7-25,95,77,64,62,49,42,60,40,17,29.87,29.70,13,1,22,0.05
2013-7-26,93,78,59,54,48,38,79,39,19,29.90,29.77,9,2,13,0.00
2013-7-27,95,79,60,47,39,29,52,26,11,29.85,29.58,10,2,17,0.00
2013-7-28,91,75,60,46,41,33,53,32,13,29.66,29.52,8,1,13,0.00
2013-7-30,72,71,71,34,34,33,26,25,24,29.85,29.85,7,4,20,0.00
2013-7-31,88,75,62,39,34,28,38,23,13,29.86,29.68,13,4,20,0.00
2013-8-1,81,71,56,36,23,11,46,19,7,29.79,29.71,10,4,19,0.00
2013-8-2,87,69,48,31,24,15,42,21,7,29.84,29.70,7,2,10,0.00
2013-8-3,90,73,52,34,30,23,46,23,9,29.80,29.66,8,2,12,0.00
2013-8-4,93,76,54,37,32,25,47,22,9,29.79,29.64,9,2,14,0.00
2013-8-5,94,76,54,35,29,14,42,20,7,29.79,29.64,8,2,12,0.00
2013-8-6,94,76,56,39,31,22,43,21,8,29.77,29.60,10,2,15,0.00
2013-8-7,88,75,63,35,30,24,30,20,12,29.76,29.65,12,5,18,0.00
2013-8-8,84,71,54,48,29,22,41,22,14,29.76,29.63,9,3,19,0.00
2013-8-9,84,74,59,48,37,28,67,29,14,29.76,29.65,9,3,15,0.00
2013-8-10,84,68,50,37,29,20,52,26,10,29.84,29.74,9,2,14,0.00
2013-8-11,88,71,52,36,32,25,50,26,11,29.86,29.70,9,2,14,0.00
2013-8-12,90,72,52,38,33,25,52,27,10,29.82,29.70,9,2,13,0.00
2013-8-13,92,74,51,38,31,22,56,25,8,29.86,29.72,8,2,16,0.00
2013-8-14,96,80,58,35,27,20,38,16,7,29.81,29.67,10,3,18,0.00
2013-8-15,94,74,53,30,24,15,36,18,6,29.79,29.69,10,2,15,0.00
2013-8-16,92,74,52,27,21,14,30,15,6,29.85,29.74,10,2,18,0.00
2013-8-17,95,76,56,39,32,20,40,22,8,29.83,29.66,7,2,14,0.00
2013-8-18,97,79,61,42,36,30,44,23,10,29.77,29.62,9,1,11,0.00
2013-8-19,85,76,68,48,43,39,41,31,21,29.77,29.70,5,0,6,0.00
2013-8-20,94,76,61,53,45,40,58,36,16,29.76,29.59,9,2,17,0.00
2013-8-21,88,74,63,50,46,41,58,38,22,29.78,29.67,11,2,13,0.00
2013-8-22,87,73,54,48,39,30,70,33,14,29.79,29.65,7,2,10,0.00
2013-8-23,86,70,52,35,31,26,49,26,13,29.73,29.60,8,2,15,0.00
2013-8-24,84,68,49,35,31,23,52,28,11,29.72,29.60,10,3,14,0.00
2013-8-25,83,66,48,40,35,30,55,35,15,29.77,29.70,11,2,18,0.00
2013-8-26,84,69,52,39,36,30,56,32,15,29.84,29.71,8,2,15,0.00
2013-8-27,86,70,52,42,38,33,55,34,18,29.77,29.61,10,1,16,0.00
2013-8-28,86,71,54,47,42,39,62,37,20,29.77,29.67,9,2,13,0.00
2013-8-29,89,73,54,45,36,24,62,31,10,29.87,29.77,9,2,13,0.00
2013-8-30,93,73,50,38,32,22,55,27,8,29.92,29.77,8,2,13,0.00
2013-8-31,94,76,55,38,35,31,46,24,13,29.83,29.66,9,2,14,0.00
2013-9-1,87,75,64,46,38,29,46,27,18,29.72,29.60,6,1,14,0.00
2013-9-2,84,73,64,53,48,43,63,43,25,29.71,29.62,11,2,14,0.00
2013-9-3,87,72,57,53,47,41,75,45,23,29.77,29.68,10,2,15,0.00
2013-9-4,90,75,59,49,45,41,61,36,20,29.80,29.66,9,3,17,0.00
2013-9-5,85,70,55,45,37,30,58,33,16,29.79,29.68,11,4,18,0.00
2013-9-6,85,69,54,35,32,27,40,26,15,29.88,29.74,7,1,10,0.00
2013-9-7,90,70,50,37,31,24,49,26,10,29.84,29.69,9,2,12,0.00
2013-9-8,89,72,50,38,32,22,55,27,10,29.80,29.65,7,2,11,0.00
2013-9-9,86,72,54,36,31,23,45,24,12,29.76,29.63,6,1,11,0.00
2013-9-10,86,70,51,34,28,23,41,23,11,29.76,29.65,5,0,14,0.00
2013-9-11,88,77,57,41,31,24,31,20,12,29.79,29.71,8,2,11,0.00
2013-9-12,84,71,60,53,44,38,57,39,23,29.75,29.65,15,1,17,0.00
2013-9-13,81,68,54,59,48,43,76,53,27,29.77,29.63,5,0,8,0.09
2013-9-14,88,70,52,51,46,38,83,47,18,29.71,29.57,8,1,15,0.00
2013-9-15,86,71,55,48,39,30,68,35,14,29.63,29.55,11,4,19,0.00
2013-9-16,87,69,50,39,33,29,52,29,13,29.70,29.55,11,2,15,0.00
2013-9-17,74,64,52,38,30,15,57,31,11,29.75,29.47,15,4,20,0.00
2013-9-18,72,56,40,38,32,24,74,43,17,29.91,29.75,3,1,13,0.00
2013-9-19,78,60,41,28,24,20,53,28,12,29.94,29.74,5,1,11,0.00
2013-9-20,82,63,44,30,25,21,48,26,12,29.75,29.56,11,4,17,0.00
2013-9-21,64,54,46,43,34,26,65,48,31,29.71,29.51,16,4,23,0.00
2013-9-22,69,54,38,38,33,22,75,49,18,29.91,29.71,8,2,13,0.00
2013-9-23,80,60,39,39,30,7,82,40,10,29.97,29.81,7,1,11,0.00
2013-9-24,70,60,48,33,25,11,44,27,15,29.83,29.57,19,8,23,0.00
2013-9-25,55,46,38,35,29,19,78,53,27,29.80,29.59,12,5,19,0.01
2013-9-26,53,44,35,30,27,21,78,54,30,30.03,29.80,8,3,12,0.00
2013-9-27,63,47,30,28,24,19,76,43,19,30.15,30.03,4,0,6,0.00
2013-9-28,76,56,36,32,27,22,58,35,18,30.08,29.91,11,3,17,0.00
2013-9-29,70,61,56,34,28,23,41,29,20,29.92,29.77,12,6,22,0.00
2013-9-30,69,60,47,38,36,31,62,41,30,29.86,29.77,13,6,19,0.00
2013-10-1,74,58,40,38,31,19,74,42,13,29.86,29.78,11,3,17,0.00
2013-10-2,71,53,38,32,24,8,70,38,9,29.88,29.74,11,2,15,0.00
2013-10-3,55,45,36,24,19,13,60,37,19,30.20,29.88,10,4,14,0.00
2013-10-4,56,44,32,22,18,13,59,36,20,30.35,30.20,8,2,14,0.00
2013-10-5,67,49,30,19,16,12,56,29,13,30.41,30.24,5,1,13,0.00
2013-10-6,79,56,32,18,14,9,47,22,7,30.26,29.98,7,1,10,0.00
2013-10-7,74,59,41,18,15,10,35,19,9,29.99,29.75,8,2,13,0.00
2013-10-8,63,52,40,28,22,16,55,33,20,29.84,29.58,8,2,10,0.00
2013-10-9,51,47,41,34,29,18,76,51,31,29.73,29.52,9,4,14,0.02
2013-10-10,65,50,34,33,28,22,75,48,20,29.92,29.72,8,2,17,0.00
2013-10-11,68,51,33,32,28,21,78,46,17,30.00,29.85,6,1,10,0.00
2013-10-12,66,52,35,32,27,21,73,43,20,29.91,29.73,12,3,17,0.00
2013-10-13,54,45,34,37,31,26,78,61,41,30.16,29.87,8,2,11,0.00
2013-10-14,59,43,28,32,26,20,86,55,25,30.28,30.15,4,0,11,0.00
2013-10-15,58,43,29,26,20,14,68,43,22,30.22,30.15,5,-31,10,0.00
2013-10-16,67,47,26,29,20,14,60,37,17,30.21,30.07,6,0,9,0.00
2013-10-17,68,50,32,28,22,17,69,38,15,30.10,29.98,4,0,10,0.00
2013-10-18,68,50,31,24,19,16,57,32,15,30.17,30.04,3,0,6,0.00
2013-10-19,73,53,32,22,19,16,55,29,13,30.16,30.02,2,0,6,0.00
2013-10-20,73,52,34,22,18,14,54,29,11,30.07,29.94,3,0,6,0.00
2013-10-21,71,52,36,22,18,15,46,28,14,30.08,29.96,4,0,12,0.00
2013-10-22,74,53,35,24,20,13,52,30,10,30.10,29.94,2,0,6,0.00
2013-10-23,73,54,35,23,19,16,51,29,12,30.01,29.88,2,0,7,0.00
2013-10-24,74,54,40,23,17,13,40,26,10,30.04,29.91,2,0,7,0.00
2013-10-25,72,53,33,20,13,6,48,23,9,30.16,30.04,3,0,6,0.00
2013-10-26,71,48,34,17,12,7,37,24,12,30.21,30.05,3,0,9,0.00
2013-10-27,68,49,34,30,18,12,86,33,13,30.05,29.38,20,5,33,0.02
2013-10-28,41,37,34,32,31,29,88,78,64,29.77,29.39,8,3,10,0.07
2013-10-29,38,36,34,33,31,30,89,85,78,30.09,29.77,8,2,12,0.03
2013-10-30,51,38,27,33,30,23,88,72,48,30.22,30.08,7,1,10,0.01
2013-10-31,59,42,27,35,30,24,92,67,31,30.30,30.17,1,0,4,0.00
2013-11-1,64,44,28,34,30,25,89,63,27,30.29,30.08,2,0,6,0.00
2013-11-2,64,46,30,34,29,20,86,56,20,30.08,29.82,11,3,18,0.01
2013-11-3,45,39,34,30,18,11,59,43,28,29.98,29.87,9,2,11,0.00
2013-11-4,47,36,25,20,16,12,62,45,26,30.22,29.97,4,1,10,0.00
2013-11-5,56,37,22,19,15,12,67,44,20,30.35,30.21,3,0,6,0.00
2013-11-6,62,43,28,24,20,16,64,43,23,30.39,30.24,1,0,5,0.00
2013-11-7,68,51,40,27,19,9,55,33,11,30.25,29.98,13,3,22,0.00
2013-11-8,67,50,37,26,22,17,57,36,18,30.01,29.84,8,2,14,0.00
2013-11-9,66,46,32,27,24,22,73,46,19,30.09,29.95,1,0,6,0.00
2013-11-10,68,48,31,27,22,18,69,40,16,30.13,30.02,2,0,5,0.00
2013-11-11,66,47,30,20,19,17,59,35,16,30.21,30.11,1,0,4,0.00
2013-11-12,66,52,41,27,21,17,45,31,20,30.29,30.17,5,0,9,0.00
2013-11-13,64,47,33,30,25,20,63,44,23,30.28,30.16,5,0,7,0.00
2013-11-14,67,52,35,29,23,16,68,36,14,30.17,29.76,9,3,14,0.00
2013-11-15,48,40,33,31,26,21,82,58,39,29.82,29.68,9,2,14,0.00
2013-11-16,56,46,32,26,22,15,67,40,26,29.84,29.64,12,5,16,0.00
2013-11-17,60,42,25,26,23,18,77,48,24,30.07,29.83,4,0,6,0.00
2013-11-18,54,44,28,31,27,19,72,51,35,30.06,29.93,14,3,20,0.00
2013-11-19,54,49,44,40,34,29,87,56,43,29.93,29.80,14,5,24,0.04
2013-11-20,52,43,33,40,36,30,90,77,51,29.88,29.72,6,1,8,0.17
2013-11-21,34,32,30,32,20,10,94,63,43,30.37,29.87,10,4,13,0.04
2013-11-22,43,32,20,16,11,6,68,44,23,30.45,30.28,6,1,8,0.00
2013-11-23,46,32,20,18,13,8,69,48,22,30.32,30.20,3,0,6,0.00
2013-11-24,49,32,18,20,15,10,78,53,23,30.40,30.25,1,0,3,0.00
2013-11-25,51,34,21,22,18,15,79,55,28,30.48,30.38,2,0,4,0.00
2013-11-26,51,35,23,26,22,18,81,61,29,30.41,30.19,1,0,2,0.00
2013-11-27,52,37,26,30,26,21,83,64,35,30.19,29.95,1,0,5,0.00
2013-11-28,50,36,27,30,26,22,85,69,43,30.20,30.00,4,0,7,0.00
2013-11-29,53,36,24,30,26,21,89,69,38,30.33,30.20,3,0,6,0.00
2013-11-30,53,36,25,29,25,20,87,66,32,30.39,30.28,4,0,7,0.00
2013-12-1,55,38,24,28,25,20,86,62,33,30.46,30.30,1,0,4,0.00
2013-12-2,63,49,32,32,20,10,72,36,13,30.30,29.67,18,7,21,0.00
2013-12-3,46,28,16,33,20,9,90,72,45,29.92,29.52,13,4,19,0.02
2013-12-4,22,17,9,11,9,3,86,70,58,30.23,29.92,3,1,8,0.00
2013-12-5,26,18,11,10,8,4,81,65,49,30.26,30.18,1,0,5,0.05
2013-12-6,30,23,9,23,12,4,90,64,42,30.25,29.84,9,1,14,0.02
2013-12-7,26,21,10,23,13,1,88,71,45,30.26,29.79,8,-6,13,0.00
2013-12-8,19,9,-2,7,2,-8,87,73,53,30.69,30.26,2,0,4,0.02
2013-12-9,22,8,-2,10,2,-8,88,74,53,30.85,30.68,1,0,3,0.02
2013-12-10,27,15,2,14,7,-4,86,71,49,30.79,30.57,1,0,3,0.03
2013-12-11,28,18,9,13,9,4,89,71,53,30.65,30.56,1,0,4,0.02
2013-12-12,34,18,6,16,10,0,83,71,47,30.61,30.44,2,0,3,0.02
2013-12-13,40,25,11,21,16,6,84,70,45,30.63,30.44,1,0,5,0.03
2013-12-14,39,24,13,21,16,9,86,74,44,30.73,30.63,1,0,4,0.01
2013-12-15,42,26,16,23,19,11,90,76,46,30.72,30.56,1,0,1,0.00
2013-12-16,41,27,16,25,20,13,88,75,47,30.65,30.52,1,0,3,0.00
2013-12-17,40,28,19,25,22,15,89,77,53,30.57,30.29,1,0,2,0.00
2013-12-18,49,35,24,30,25,21,86,68,38,30.28,29.73,6,1,11,0.00
2013-12-19,40,30,19,27,19,11,82,64,46,30.09,29.71,10,3,13,0.01
2013-12-20,35,25,13,22,13,4,80,62,27,30.24,30.08,2,0,6,0.00
2013-12-21,48,38,28,32,28,23,84,69,50,30.20,30.06,7,1,11,0.01
2013-12-22,51,34,25,32,27,22,89,76,46,30.46,30.19,2,0,4,0.00
2013-12-23,52,35,24,32,27,21,91,75,45,30.52,30.43,1,0,4,0.01
2013-12-24,50,36,25,32,27,21,87,73,47,30.54,30.43,2,0,4,0.00
2013-12-25,47,32,23,32,26,20,91,80,52,30.57,30.45,2,0,4,0.01
2013-12-26,45,31,20,30,24,17,93,77,48,30.57,30.46,2,0,4,0.00
2013-12-27,39,29,20,28,23,17,90,80,62,30.48,30.27,1,0,1,0.01
2013-12-28,45,30,20,25,20,16,86,70,36,30.45,30.26,6,0,8,0.01
2013-12-29,44,30,20,24,20,15,86,69,42,30.48,30.37,2,0,5,0.00
2013-12-30,45,31,20,25,21,16,87,68,39,30.46,30.34,1,0,4,0.00
2013-12-31,54,37,28,27,21,11,79,57,19,30.36,30.24,3,0,4,0.00
2014-1-1,51,35,23,23,20,16,77,56,29,30.40,30.28,2,0,7,0.00
2014-1-2,51,35,22,25,22,17,82,62,32,30.34,30.21,0,0,3,0.00